Time;durP1;ratioP1;P1;durP2;ratioP2;P2;SDS_P1;SDS_P2;PMS_P1;PMS_P2;Temp;Humidity;BMP_temperature;BMP_pressure;BME280_temperature;BME280_humidity;BME280_pressure;Samples;Min_cycle;Max_cycle;Signal;HPM_P1;HPM_P2
2023/11/22 00:00:42;;;;;;;3.28;1.70;;;1.90;99.90;;;;;;5034744;28;20546;-60
2023/11/22 00:03:10;;;;;;;3.65;1.95;;;1.90;99.90;;;;;;5047899;28;20037;-60
2023/11/22 00:05:35;;;;;;;6.10;1.90;;;1.90;99.90;;;;;;5025935;28;20032;-59
2023/11/22 00:08:01;;;;;;;2.20;1.77;;;1.80;99.90;;;;;;5048340;28;20029;-59
2023/11/22 00:10:27;;;;;;;2.97;1.38;;;1.80;99.90;;;;;;5046255;28;20032;-59
2023/11/22 00:12:53;;;;;;;2.60;1.70;;;1.70;99.90;;;;;;5052007;28;20397;-59
2023/11/22 00:15:18;;;;;;;2.72;1.58;;;1.70;99.90;;;;;;5046976;28;20025;-61
2023/11/22 00:17:45;;;;;;;2.55;1.38;;;1.70;99.90;;;;;;5050352;28;20095;-58
2023/11/22 00:20:11;;;;;;;3.40;1.58;;;1.60;99.90;;;;;;5045073;28;20032;-60
2023/11/22 00:22:36;;;;;;;2.10;1.35;;;1.60;99.90;;;;;;5031446;28;20473;-60
2023/11/22 00:25:03;;;;;;;2.78;1.52;;;1.60;99.90;;;;;;5045395;28;20023;-60
2023/11/22 00:27:32;;;;;;;3.28;1.40;;;1.50;99.90;;;;;;5050590;28;20515;-59
2023/11/22 00:29:58;;;;;;;2.63;1.65;;;1.50;99.90;;;;;;5045860;28;20508;-59
2023/11/22 00:32:24;;;;;;;2.47;1.67;;;1.40;99.90;;;;;;5050898;28;20029;-60
2023/11/22 00:34:50;;;;;;;2.95;1.70;;;1.30;99.90;;;;;;5058950;28;20025;-60
2023/11/22 00:37:15;;;;;;;3.65;1.77;;;1.20;99.90;;;;;;5048905;28;20654;-60
2023/11/22 00:39:41;;;;;;;2.03;1.83;;;1.20;99.90;;;;;;5042419;28;20029;-60
2023/11/22 00:42:08;;;;;;;2.88;1.65;;;1.10;99.90;;;;;;5042892;28;20207;-60
2023/11/22 00:44:33;;;;;;;2.50;1.83;;;1.10;99.90;;;;;;5049002;28;20026;-60
2023/11/22 00:46:59;;;;;;;3.33;2.13;;;1.00;99.90;;;;;;5043041;28;20600;-59
2023/11/22 00:49:24;;;;;;;3.17;1.90;;;0.90;99.90;;;;;;5053277;28;20028;-60
2023/11/22 00:51:53;;;;;;;2.60;1.98;;;0.90;99.90;;;;;;5051271;28;20046;-59
2023/11/22 00:54:19;;;;;;;2.35;1.73;;;0.90;99.90;;;;;;5048489;28;20048;-59
2023/11/22 00:56:46;;;;;;;3.40;1.98;;;0.90;99.90;;;;;;5045675;28;20452;-60
2023/11/22 00:59:11;;;;;;;3.00;1.77;;;0.80;99.90;;;;;;5028571;28;20504;-60
2023/11/22 01:01:37;;;;;;;2.92;2.30;;;0.80;99.90;;;;;;5041948;28;20037;-59
2023/11/22 01:04:03;;;;;;;4.75;2.05;;;0.80;99.90;;;;;;5043936;28;20036;-59
2023/11/22 01:06:29;;;;;;;2.35;1.77;;;0.80;99.90;;;;;;5049290;28;20144;-59
2023/11/22 01:08:54;;;;;;;3.40;2.22;;;0.70;99.90;;;;;;5050997;28;20033;-59
2023/11/22 01:11:20;;;;;;;1.95;1.50;;;0.70;99.90;;;;;;5049770;28;20028;-59
2023/11/22 01:13:46;;;;;;;2.40;1.58;;;0.70;99.90;;;;;;5026236;28;20025;-60
2023/11/22 01:16:13;;;;;;;3.88;1.67;;;0.70;99.90;;;;;;5027215;28;20049;-57
2023/11/22 01:18:39;;;;;;;5.03;1.98;;;0.70;99.90;;;;;;5027562;28;20476;-59
2023/11/22 01:21:05;;;;;;;3.40;1.90;;;0.70;99.90;;;;;;5043850;28;20046;-59
2023/11/22 01:23:34;;;;;;;2.40;1.95;;;0.70;99.90;;;;;;5038204;28;20037;-59
2023/11/22 01:26:00;;;;;;;2.28;1.88;;;0.70;99.90;;;;;;5040279;28;20766;-59
2023/11/22 01:28:27;;;;;;;2.78;2.08;;;0.70;99.90;;;;;;5039558;28;20052;-59
2023/11/22 01:30:54;;;;;;;2.05;1.90;;;0.70;99.90;;;;;;5040917;28;20505;-59
2023/11/22 01:33:22;;;;;;;2.50;1.83;;;0.60;99.90;;;;;;5040344;28;20123;-59
2023/11/22 01:35:49;;;;;;;3.63;2.55;;;0.60;99.90;;;;;;5035176;28;20033;-57
2023/11/22 01:38:15;;;;;;;2.40;1.80;;;0.60;99.90;;;;;;5041564;28;20394;-58
2023/11/22 01:40:47;;;;;;;4.95;1.83;;;0.60;99.90;;;;;;5023958;28;20028;-59
2023/11/22 01:43:23;;;;;;;2.58;2.00;;;0.60;99.90;;;;;;5032120;28;20036;-59
2023/11/22 01:45:49;;;;;;;;;;;0.50;99.90;;;;;;5037953;28;20067;-59
2023/11/22 01:48:15;;;;;;;2.43;1.97;;;0.50;99.90;;;;;;5037870;28;20438;-59
2023/11/22 01:50:43;;;;;;;2.63;1.95;;;0.50;99.90;;;;;;5021475;28;20325;-59
2023/11/22 01:53:11;;;;;;;3.55;1.95;;;0.50;99.90;;;;;;5037309;28;20104;-60
2023/11/22 01:55:37;;;;;;;3.08;1.95;;;0.40;99.90;;;;;;5027728;28;20021;-59
2023/11/22 01:58:03;;;;;;;2.47;1.70;;;0.30;99.90;;;;;;5040495;28;20448;-59
2023/11/22 02:00:35;;;;;;;2.85;1.98;;;0.30;99.90;;;;;;5025936;28;20040;-59
2023/11/22 02:03:00;;;;;;;3.08;2.47;;;0.30;99.90;;;;;;5044899;28;20489;-59
2023/11/22 02:05:26;;;;;;;3.92;1.98;;;0.40;99.90;;;;;;5023626;28;20033;-59
2023/11/22 02:07:52;;;;;;;5.78;1.95;;;0.30;99.90;;;;;;5022708;28;20876;-58
2023/11/22 02:10:17;;;;;;;2.78;1.58;;;0.30;99.90;;;;;;5046430;28;20483;-58
2023/11/22 02:12:43;;;;;;;4.45;2.50;;;0.30;99.90;;;;;;5044552;28;20028;-59
2023/11/22 02:15:09;;;;;;;3.20;2.40;;;0.30;99.90;;;;;;5044482;28;20504;-57
2023/11/22 02:17:35;;;;;;;2.97;1.77;;;0.30;99.90;;;;;;5044730;28;20469;-56
2023/11/22 02:20:01;;;;;;;4.07;2.88;;;0.20;99.90;;;;;;5044859;28;20021;-59
2023/11/22 02:22:27;;;;;;;2.53;2.10;;;0.20;99.90;;;;;;5027264;28;20033;-59
2023/11/22 02:24:52;;;;;;;3.22;2.22;;;0.20;99.90;;;;;;5038016;28;20025;-60
2023/11/22 02:27:18;;;;;;;3.40;2.70;;;0.20;99.90;;;;;;5037490;28;20032;-57
2023/11/22 02:29:45;;;;;;;2.97;2.50;;;0.10;99.90;;;;;;5022702;28;20599;-58
2023/11/22 02:32:10;;;;;;;3.65;2.25;;;0.10;99.90;;;;;;5038320;28;20109;-59
2023/11/22 02:34:36;;;;;;;4.88;3.22;;;0.00;99.90;;;;;;5040361;28;20114;-59
2023/11/22 02:37:01;;;;;;;3.10;2.33;;;0.00;99.90;;;;;;5019911;28;20029;-60
2023/11/22 02:39:43;;;;;;;4.07;2.75;;;0.00;99.90;;;;;;5038536;28;20032;-58
2023/11/22 02:42:08;;;;;;;3.78;2.20;;;-0.10;99.90;;;;;;5038833;28;20033;-58
2023/11/22 02:44:34;;;;;;;3.92;2.70;;;-0.10;99.90;;;;;;5026397;28;20025;-60
2023/11/22 02:46:59;;;;;;;3.28;2.33;;;-0.10;99.90;;;;;;5051274;28;20033;-59
2023/11/22 02:49:25;;;;;;;3.58;2.05;;;-0.10;99.90;;;;;;5029945;28;20504;-59
2023/11/22 02:51:50;;;;;;;3.38;2.53;;;-0.10;99.90;;;;;;5033616;28;20515;-59
2023/11/22 02:54:16;;;;;;;3.58;2.75;;;0.00;99.90;;;;;;5053331;28;20020;-58
2023/11/22 02:56:41;;;;;;;5.50;2.53;;;0.00;99.90;;;;;;5047183;28;20028;-59
2023/11/22 02:59:13;;;;;;;5.32;2.88;;;0.00;99.90;;;;;;5029041;28;20099;-58
2023/11/22 03:01:42;;;;;;;4.28;2.65;;;0.00;99.90;;;;;;5028427;28;20013;-57
2023/11/22 03:04:08;;;;;;;5.88;2.70;;;0.00;99.90;;;;;;5042262;28;20025;-59
2023/11/22 03:06:33;;;;;;;2.75;2.25;;;0.00;99.90;;;;;;5045300;28;20048;-59
2023/11/22 03:08:59;;;;;;;3.85;2.55;;;0.00;99.90;;;;;;5045134;28;21302;-59
2023/11/22 03:11:24;;;;;;;5.13;2.85;;;0.00;99.90;;;;;;5027831;28;20547;-58
2023/11/22 03:13:50;;;;;;;4.38;3.15;;;0.00;99.90;;;;;;5049759;28;20052;-58
2023/11/22 03:16:15;;;;;;;3.15;2.35;;;0.00;99.90;;;;;;5038093;28;20584;-60
2023/11/22 03:18:41;;;;;;;3.05;2.50;;;0.00;99.90;;;;;;5050656;28;20098;-58
2023/11/22 03:21:07;;;;;;;5.03;2.75;;;0.00;99.90;;;;;;5042749;28;20028;-57
2023/11/22 03:23:32;;;;;;;2.67;2.08;;;0.00;99.90;;;;;;5043297;28;20041;-58
2023/11/22 03:25:58;;;;;;;3.90;2.28;;;-0.10;99.90;;;;;;5041190;28;20051;-58
2023/11/22 03:28:23;;;;;;;3.25;2.28;;;-0.10;99.90;;;;;;5042796;28;20036;-59
2023/11/22 03:30:50;;;;;;;5.05;2.42;;;-0.10;99.90;;;;;;5031242;28;20401;-59
2023/11/22 03:33:15;;;;;;;3.38;2.72;;;-0.10;99.90;;;;;;5039762;28;20146;-59
2023/11/22 03:35:41;;;;;;;4.32;2.42;;;-0.10;99.90;;;;;;5046667;28;20581;-59
2023/11/22 03:38:06;;;;;;;7.15;3.00;;;-0.10;99.90;;;;;;5046456;28;20116;-59
2023/11/22 03:40:32;;;;;;;4.03;2.83;;;-0.20;99.90;;;;;;5050490;28;20487;-59
2023/11/22 03:42:57;;;;;;;2.78;2.38;;;-0.20;99.90;;;;;;5045195;28;20034;-59
2023/11/22 03:45:24;;;;;;;3.22;2.30;;;-0.20;99.90;;;;;;5032245;28;20044;-59
2023/11/22 03:47:49;;;;;;;3.40;2.28;;;-0.20;99.90;;;;;;5048032;28;20671;-59
2023/11/22 03:50:15;;;;;;;2.75;2.40;;;-0.20;99.90;;;;;;5025578;28;20044;-59
2023/11/22 03:52:41;;;;;;;2.55;1.80;;;-0.20;99.90;;;;;;5048003;28;20033;-57
2023/11/22 03:55:06;;;;;;;3.30;2.63;;;-0.20;99.90;;;;;;5046151;28;20024;-59
2023/11/22 03:57:32;;;;;;;3.35;2.10;;;-0.20;99.90;;;;;;5053143;28;20021;-59
2023/11/22 03:59:57;;;;;;;3.67;2.70;;;-0.20;99.90;;;;;;5044838;28;20532;-58
2023/11/22 04:02:23;;;;;;;5.80;2.95;;;-0.30;99.90;;;;;;5048877;28;21336;-58
2023/11/22 04:04:49;;;;;;;3.55;2.63;;;-0.30;99.90;;;;;;5047980;28;20397;-57
2023/11/22 04:07:14;;;;;;;3.00;2.65;;;-0.30;99.90;;;;;;5038537;28;20493;-57
2023/11/22 04:09:39;;;;;;;3.42;2.53;;;-0.30;99.90;;;;;;5033397;28;20502;-60
2023/11/22 04:12:05;;;;;;;3.25;2.50;;;-0.30;99.90;;;;;;5046187;28;20542;-59
2023/11/22 04:14:31;;;;;;;2.65;2.40;;;-0.30;99.90;;;;;;5044775;28;20017;-60
2023/11/22 04:16:56;;;;;;;3.67;2.58;;;-0.40;99.90;;;;;;5025407;28;20123;-59
2023/11/22 04:19:22;;;;;;;2.65;2.10;;;-0.30;99.90;;;;;;5043788;28;20445;-58
2023/11/22 04:21:47;;;;;;;4.18;2.58;;;-0.30;99.90;;;;;;5051945;28;20025;-58
2023/11/22 04:24:13;;;;;;;4.88;2.78;;;-0.30;99.90;;;;;;5027598;28;20017;-58
2023/11/22 04:26:39;;;;;;;3.17;2.55;;;-0.30;99.90;;;;;;5022654;28;20869;-58
2023/11/22 04:29:04;;;;;;;3.28;2.58;;;-0.20;99.90;;;;;;5038964;28;20029;-57
2023/11/22 04:31:30;;;;;;;4.40;2.58;;;-0.20;99.90;;;;;;5040867;28;20711;-56
2023/11/22 04:33:57;;;;;;;2.75;2.17;;;-0.20;99.90;;;;;;5041634;28;20025;-59
2023/11/22 04:36:23;;;;;;;4.00;2.40;;;-0.20;99.90;;;;;;5038304;28;20025;-57
2023/11/22 04:38:49;;;;;;;3.67;2.53;;;-0.20;99.90;;;;;;5029204;28;20481;-57
2023/11/22 04:41:15;;;;;;;3.38;2.92;;;-0.30;99.90;;;;;;5048334;28;20021;-56
2023/11/22 04:43:41;;;;;;;4.18;2.55;;;-0.30;99.90;;;;;;5051007;28;20077;-57
2023/11/22 04:46:08;;;;;;;3.83;2.70;;;-0.30;99.90;;;;;;5033483;28;20029;-54
2023/11/22 04:48:34;;;;;;;3.20;2.47;;;-0.30;99.90;;;;;;5051481;28;20059;-58
2023/11/22 04:51:00;;;;;;;2.85;2.38;;;-0.30;99.90;;;;;;5053743;28;20033;-58
2023/11/22 04:53:26;;;;;;;3.67;2.60;;;-0.30;99.90;;;;;;5050879;28;20074;-57
2023/11/22 04:55:52;;;;;;;4.15;2.83;;;-0.30;99.90;;;;;;5037287;28;20105;-57
2023/11/22 04:58:17;;;;;;;4.28;2.83;;;-0.30;99.90;;;;;;5044807;28;20693;-59
2023/11/22 05:00:43;;;;;;;3.88;2.08;;;-0.30;99.90;;;;;;5048117;28;20029;-59
2023/11/22 05:03:09;;;;;;;3.65;2.42;;;-0.40;99.90;;;;;;5034751;28;20370;-57
2023/11/22 05:05:34;;;;;;;4.55;3.38;;;-0.30;99.90;;;;;;5052575;28;20035;-57
2023/11/22 05:08:00;;;;;;;4.32;2.80;;;-0.40;99.90;;;;;;5028969;28;20060;-58
2023/11/22 05:10:25;;;;;;;5.18;2.90;;;-0.40;99.90;;;;;;5031369;28;20450;-59
2023/11/22 05:12:51;;;;;;;5.03;2.58;;;-0.40;99.90;;;;;;5049022;28;20510;-59
2023/11/22 05:15:16;;;;;;;3.92;2.85;;;-0.40;99.90;;;;;;5046821;28;20026;-58
2023/11/22 05:17:42;;;;;;;2.92;2.35;;;-0.40;99.90;;;;;;5041385;28;20025;-58
2023/11/22 05:20:09;;;;;;;4.38;2.42;;;-0.40;99.90;;;;;;5046608;28;20051;-59
2023/11/22 05:22:36;;;;;;;4.60;2.58;;;-0.40;99.90;;;;;;5040624;28;20516;-57
2023/11/22 05:25:01;;;;;;;3.28;2.53;;;-0.50;99.90;;;;;;5044597;28;20028;-58
2023/11/22 05:27:28;;;;;;;4.43;2.50;;;-0.50;99.90;;;;;;5037615;28;20025;-59
2023/11/22 05:29:54;;;;;;;4.38;2.70;;;-0.50;99.90;;;;;;5033917;28;20048;-57
2023/11/22 05:32:19;;;;;;;4.47;2.67;;;-0.50;99.90;;;;;;5025743;28;20102;-55
2023/11/22 05:34:45;;;;;;;4.78;2.67;;;-0.50;99.90;;;;;;5021854;28;20577;-54
2023/11/22 05:37:11;;;;;;;3.35;2.33;;;-0.50;99.90;;;;;;5042171;28;20499;-56
2023/11/22 05:39:36;;;;;;;2.65;2.17;;;-0.50;99.90;;;;;;5046387;28;20433;-56
2023/11/22 05:42:03;;;;;;;4.60;3.00;;;-0.50;99.90;;;;;;5045354;28;20099;-60
2023/11/22 05:44:29;;;;;;;3.33;2.60;;;-0.50;99.90;;;;;;5050403;28;20497;-59
2023/11/22 05:46:54;;;;;;;3.03;2.45;;;-0.50;99.90;;;;;;5047267;28;20030;-59
2023/11/22 05:49:20;;;;;;;3.13;2.72;;;-0.40;99.90;;;;;;5043474;28;20036;-57
2023/11/22 05:51:45;;;;;;;4.80;3.05;;;-0.40;99.90;;;;;;5044077;28;20033;-57
2023/11/22 05:54:12;;;;;;;4.40;2.67;;;-0.50;99.90;;;;;;5048826;28;20031;-58
2023/11/22 05:56:38;;;;;;;4.35;2.40;;;-0.50;99.90;;;;;;5027029;28;20037;-59
2023/11/22 05:59:03;;;;;;;3.95;2.90;;;-0.50;99.90;;;;;;5050623;28;20028;-59
2023/11/22 06:01:30;;;;;;;2.38;2.00;;;-0.50;99.90;;;;;;5044808;28;20116;-58
2023/11/22 06:03:56;;;;;;;3.88;2.72;;;-0.40;99.90;;;;;;5034562;28;20104;-59
2023/11/22 06:06:22;;;;;;;4.25;2.78;;;-0.40;99.90;;;;;;5030393;28;20021;-59
2023/11/22 06:08:48;;;;;;;3.58;2.45;;;-0.40;99.90;;;;;;5047183;28;20505;-59
2023/11/22 06:11:15;;;;;;;3.65;2.50;;;-0.40;99.90;;;;;;5044507;28;20043;-59
2023/11/22 06:13:42;;;;;;;3.22;2.17;;;-0.40;99.90;;;;;;5046795;28;20443;-58
2023/11/22 06:16:09;;;;;;;3.75;2.20;;;-0.40;99.90;;;;;;5030580;28;20039;-61
2023/11/22 06:18:39;;;;;;;3.08;2.70;;;-0.50;99.90;;;;;;5042569;28;20063;-59
2023/11/22 06:21:08;;;;;;;4.57;3.40;;;-0.50;99.90;;;;;;5040814;28;20036;-58
2023/11/22 06:23:33;;;;;;;4.13;2.55;;;-0.50;99.90;;;;;;5039584;28;20029;-59
2023/11/22 06:25:59;;;;;;;6.53;2.85;;;-0.50;99.90;;;;;;5041695;28;20137;-58
2023/11/22 06:28:25;;;;;;;3.13;2.45;;;-0.60;99.90;;;;;;5045326;28;20447;-59
2023/11/22 06:30:50;;;;;;;3.30;2.63;;;-0.60;99.90;;;;;;5048621;28;20108;-58
2023/11/22 06:33:16;;;;;;;3.30;2.63;;;-0.60;99.90;;;;;;5029922;28;20541;-56
2023/11/22 06:35:42;;;;;;;3.83;2.67;;;-0.60;99.90;;;;;;5045034;28;20037;-56
2023/11/22 06:38:08;;;;;;;3.85;2.40;;;-0.60;99.90;;;;;;5047955;28;20025;-58
2023/11/22 06:40:33;;;;;;;2.92;2.33;;;-0.60;99.90;;;;;;5027879;28;20025;-59
2023/11/22 06:42:59;;;;;;;4.57;2.67;;;-0.60;99.90;;;;;;5040798;28;20087;-56
2023/11/22 06:45:25;;;;;;;3.15;2.47;;;-0.60;99.90;;;;;;5045719;28;20538;-58
2023/11/22 06:47:51;;;;;;;3.20;2.28;;;-0.60;99.90;;;;;;5048962;28;20024;-58
2023/11/22 06:50:17;;;;;;;5.47;2.85;;;-0.60;99.90;;;;;;5036518;28;20209;-58
2023/11/22 06:52:42;;;;;;;3.35;2.53;;;-0.50;99.90;;;;;;5027105;28;20028;-58
2023/11/22 06:55:09;;;;;;;4.30;2.67;;;-0.50;99.90;;;;;;5043035;28;20021;-58
2023/11/22 06:57:35;;;;;;;3.13;2.75;;;-0.50;99.90;;;;;;5022549;28;20062;-58
2023/11/22 07:00:04;;;;;;;4.35;3.08;;;-0.50;99.90;;;;;;5026111;28;20035;-58
2023/11/22 07:02:30;;;;;;;3.33;2.50;;;-0.50;99.90;;;;;;5050713;28;20103;-58
2023/11/22 07:04:56;;;;;;;3.28;2.63;;;-0.50;99.90;;;;;;5044083;28;20079;-58
2023/11/22 07:07:21;;;;;;;4.88;3.17;;;-0.40;99.90;;;;;;5047738;28;20029;-58
2023/11/22 07:09:48;;;;;;;3.53;2.80;;;-0.40;99.90;;;;;;5043492;28;20037;-56
2023/11/22 07:12:14;;;;;;;3.38;2.47;;;-0.40;99.90;;;;;;5045430;28;20016;-58
2023/11/22 07:14:39;;;;;;;3.53;2.78;;;-0.40;99.90;;;;;;5047344;28;20117;-58
2023/11/22 07:17:07;;;;;;;5.78;4.38;;;-0.40;99.90;;;;;;5049199;28;20021;-55
2023/11/22 07:19:37;;;;;;;8.13;4.60;;;-0.30;99.90;;;;;;5043864;28;20029;-56
2023/11/22 07:22:04;;;;;;;6.03;3.97;;;-0.30;99.90;;;;;;5040781;28;20020;-59
2023/11/22 07:24:34;;;;;;;4.47;3.78;;;-0.30;99.90;;;;;;5026525;28;20037;-56
2023/11/22 07:27:00;;;;;;;4.28;3.10;;;-0.30;99.90;;;;;;5048317;28;20021;-57
2023/11/22 07:29:26;;;;;;;6.05;3.38;;;-0.30;99.90;;;;;;5051362;28;20488;-57
2023/11/22 07:31:51;;;;;;;6.50;4.00;;;-0.20;99.90;;;;;;5046576;28;20068;-56
2023/11/22 07:34:18;;;;;;;5.72;4.18;;;-0.20;99.90;;;;;;5038017;28;20038;-56
2023/11/22 07:36:44;;;;;;;6.00;3.80;;;-0.20;99.90;;;;;;5033135;28;20114;-56
2023/11/22 07:39:11;;;;;;;6.22;4.40;;;-0.20;99.90;;;;;;5036882;28;20033;-58
2023/11/22 07:41:37;;;;;;;5.18;4.18;;;-0.20;99.90;;;;;;5026348;28;20044;-58
2023/11/22 07:44:03;;;;;;;6.43;4.13;;;-0.20;99.90;;;;;;5041733;28;20029;-57
2023/11/22 07:46:28;;;;;;;5.68;4.22;;;-0.10;99.90;;;;;;5046483;28;20047;-58
2023/11/22 07:48:54;;;;;;;4.53;3.72;;;-0.20;99.90;;;;;;5044020;28;20034;-58
2023/11/22 07:51:19;;;;;;;5.40;4.03;;;-0.10;99.90;;;;;;5029548;28;20052;-57
2023/11/22 07:53:45;;;;;;;5.70;3.05;;;-0.10;99.90;;;;;;5048891;28;20029;-58
2023/11/22 07:56:11;;;;;;;5.60;3.90;;;-0.10;99.90;;;;;;5049996;28;20025;-59
2023/11/22 07:58:37;;;;;;;4.82;3.58;;;-0.10;99.90;;;;;;5042703;28;20064;-59
2023/11/22 08:01:10;;;;;;;6.35;4.05;;;0.00;99.90;;;;;;5051245;28;20476;-57
2023/11/22 08:03:35;;;;;;;5.32;4.15;;;0.00;99.90;;;;;;5043421;28;20549;-56
2023/11/22 08:06:02;;;;;;;11.80;8.10;;;0.00;99.90;;;;;;5044011;28;20033;-58
2023/11/22 08:08:28;;;;;;;12.00;6.90;;;0.00;99.90;;;;;;5046532;28;20025;-58
2023/11/22 08:10:56;;;;;;;10.18;6.07;;;0.10;99.90;;;;;;5022550;28;20039;-58
2023/11/22 08:13:22;;;;;;;7.57;4.45;;;0.10;99.90;;;;;;5049126;28;20025;-57
2023/11/22 08:15:48;;;;;;;6.82;4.57;;;0.20;99.90;;;;;;5049438;28;20045;-57
2023/11/22 08:18:16;;;;;;;5.88;4.43;;;0.20;99.90;;;;;;5050120;28;20607;-57
2023/11/22 08:20:43;;;;;;;6.63;3.97;;;0.30;99.90;;;;;;5032300;28;20108;-58
2023/11/22 08:23:08;;;;;;;5.93;3.67;;;0.30;99.90;;;;;;5050041;28;20635;-58
2023/11/22 08:25:34;;;;;;;5.50;3.92;;;0.30;99.90;;;;;;5036621;28;20119;-58
2023/11/22 08:28:01;;;;;;;5.07;3.95;;;0.40;99.90;;;;;;5053816;28;20032;-58
2023/11/22 08:30:26;;;;;;;4.97;3.92;;;0.40;99.90;;;;;;5054126;28;20461;-54
2023/11/22 08:32:55;;;;;;;5.60;4.25;;;0.40;99.90;;;;;;5046028;28;20029;-58
2023/11/22 08:35:21;;;;;;;4.82;4.00;;;0.40;99.90;;;;;;5027681;28;20026;-57
2023/11/22 08:37:47;;;;;;;6.70;3.70;;;0.50;99.90;;;;;;5052051;28;20024;-59
2023/11/22 08:40:16;;;;;;;8.45;4.93;;;0.50;99.90;;;;;;5047994;28;20090;-59
2023/11/22 08:42:42;;;;;;;7.80;3.85;;;0.50;99.90;;;;;;5046697;28;20135;-58
2023/11/22 08:45:08;;;;;;;5.50;4.43;;;0.50;99.90;;;;;;5047315;28;20135;-58
2023/11/22 08:47:34;;;;;;;5.70;3.75;;;0.60;99.90;;;;;;5050139;28;20038;-58
2023/11/22 08:50:03;;;;;;;7.10;5.07;;;0.60;99.90;;;;;;5046593;28;20028;-58
2023/11/22 08:52:30;;;;;;;6.07;4.68;;;0.60;99.90;;;;;;5052125;28;20025;-57
2023/11/22 08:54:56;;;;;;;5.53;4.18;;;0.70;99.90;;;;;;5050002;28;20025;-58
2023/11/22 08:57:22;;;;;;;6.32;4.63;;;0.70;99.90;;;;;;5045826;28;20017;-58
2023/11/22 08:59:47;;;;;;;7.55;5.25;;;0.70;99.90;;;;;;5054374;28;20037;-58
2023/11/22 09:02:14;;;;;;;6.95;4.75;;;0.70;99.90;;;;;;5031358;28;20156;-56
2023/11/22 09:04:41;;;;;;;7.03;4.32;;;0.80;99.90;;;;;;5047842;28;20018;-59
2023/11/22 09:07:07;;;;;;;7.38;4.22;;;0.80;99.90;;;;;;5045341;28;20393;-59
2023/11/22 09:09:34;;;;;;;7.55;5.00;;;0.80;99.90;;;;;;5049118;28;20029;-57
2023/11/22 09:12:00;;;;;;;6.38;4.78;;;0.80;99.90;;;;;;5051683;28;20729;-58
2023/11/22 09:14:26;;;;;;;7.60;5.28;;;0.90;99.90;;;;;;5045424;28;20052;-58
2023/11/22 09:16:55;;;;;;;6.28;4.72;;;0.90;99.90;;;;;;5050642;28;20040;-58
2023/11/22 09:19:21;;;;;;;7.22;5.80;;;1.00;99.90;;;;;;5046785;28;20017;-57
2023/11/22 09:21:47;;;;;;;12.15;6.75;;;1.00;99.90;;;;;;5052704;28;20017;-58
2023/11/22 09:24:13;;;;;;;9.25;7.05;;;1.00;99.90;;;;;;5026231;28;20547;-59
2023/11/22 09:26:38;;;;;;;6.88;5.13;;;1.10;99.90;;;;;;5053469;28;20071;-59
2023/11/22 09:29:04;;;;;;;7.32;5.47;;;1.10;99.90;;;;;;5051893;28;20042;-59
2023/11/22 09:31:30;;;;;;;8.95;6.25;;;1.10;99.90;;;;;;5053974;28;20028;-59
2023/11/22 09:33:56;;;;;;;12.88;8.80;;;1.10;99.90;;;;;;5045865;28;20037;-58
2023/11/22 09:36:24;;;;;;;19.88;12.68;;;1.20;99.90;;;;;;5050861;28;20543;-58
2023/11/22 09:38:50;;;;;;;16.10;11.27;;;1.20;99.90;;;;;;5047219;28;20017;-59
2023/11/22 09:41:17;;;;;;;15.43;9.13;;;1.20;99.90;;;;;;5035330;28;20082;-59
2023/11/22 09:43:44;;;;;;;12.20;7.47;;;1.30;99.90;;;;;;5043620;28;20505;-58
2023/11/22 09:46:11;;;;;;;9.63;7.05;;;1.30;99.90;;;;;;5035996;28;20070;-58
2023/11/22 09:48:39;;;;;;;15.98;8.57;;;1.30;99.90;;;;;;5048172;28;20051;-56
2023/11/22 09:51:38;;;;;;;12.20;7.57;;;1.40;99.90;;;;;;5026611;28;20143;-57
2023/11/22 09:54:07;;;;;;;12.90;6.72;;;1.40;99.90;;;;;;5032894;28;20674;-58
2023/11/22 09:56:36;;;;;;;7.32;5.72;;;1.50;99.90;;;;;;5043136;28;20083;-59
2023/11/22 09:59:04;;;;;;;7.00;5.65;;;1.50;99.90;;;;;;5067872;22;20041;-56
2023/11/22 10:01:36;;;;;;;8.95;6.05;;;1.50;99.90;;;;;;5042223;28;20029;-55
2023/11/22 10:04:05;;;;;;;13.80;5.80;;;1.60;99.90;;;;;;5024271;28;20405;-55
2023/11/22 10:06:35;;;;;;;7.40;6.03;;;1.60;99.90;;;;;;5040329;28;20032;-55
2023/11/22 10:09:07;;;;;;;8.80;6.63;;;1.60;99.90;;;;;;5051014;28;20398;-54
2023/11/22 10:11:33;;;;;;;11.25;6.03;;;1.70;99.90;;;;;;5049372;28;20037;-55
2023/11/22 10:13:59;;;;;;;7.88;6.40;;;1.70;99.90;;;;;;5051791;28;20051;-54
2023/11/22 10:16:24;;;;;;;8.15;6.38;;;1.70;99.90;;;;;;5043211;28;20032;-53
2023/11/22 10:18:50;;;;;;;10.70;6.00;;;1.80;99.90;;;;;;5049323;28;20044;-57
2023/11/22 10:21:24;;;;;;;11.90;6.47;;;1.80;99.90;;;;;;5049626;28;20024;-56
2023/11/22 10:23:56;;;;;;;11.50;6.82;;;1.90;99.90;;;;;;5037913;28;20036;-55
2023/11/22 10:26:23;;;;;;;10.50;6.57;;;1.90;99.90;;;;;;5041667;28;20033;-55
2023/11/22 10:28:53;;;;;;;7.05;6.25;;;1.90;99.90;;;;;;5041948;28;20024;-55
2023/11/22 10:31:22;;;;;;;10.32;6.47;;;2.00;99.90;;;;;;5040512;28;20112;-57
2023/11/22 10:33:48;;;;;;;9.73;7.47;;;2.00;99.90;;;;;;5046334;28;20520;-55
2023/11/22 10:36:14;;;;;;;8.57;6.03;;;2.10;99.90;;;;;;5050074;28;20025;-57
2023/11/22 10:38:42;;;;;;;11.18;6.85;;;2.10;99.90;;;;;;5042061;28;20670;-58
2023/11/22 10:41:08;;;;;;;8.60;6.00;;;2.20;99.90;;;;;;5046413;28;20025;-54
2023/11/22 10:43:35;;;;;;;7.45;5.28;;;2.20;99.90;;;;;;5047513;28;20037;-52
2023/11/22 10:46:08;;;;;;;10.65;6.75;;;2.30;99.90;;;;;;5052944;28;20064;-55
2023/11/22 10:48:37;;;;;;;8.23;6.40;;;2.30;99.90;;;;;;5038258;28;20362;-57
2023/11/22 10:51:05;;;;;;;7.22;5.13;;;2.30;99.90;;;;;;5036397;28;20028;-56
2023/11/22 10:53:36;;;;;;;8.13;5.15;;;2.40;99.90;;;;;;5048145;28;20551;-54
2023/11/22 10:56:15;;;;;;;9.82;5.78;;;2.50;99.90;;;;;;5037830;28;20082;-55
2023/11/22 10:58:49;;;;;;;7.88;5.00;;;2.50;99.90;;;;;;5047379;28;20047;-58
2023/11/22 11:01:23;;;;;;;8.57;5.55;;;2.60;99.90;;;;;;5046315;28;20060;-58
2023/11/22 11:04:00;;;;;;;7.75;5.38;;;2.60;99.90;;;;;;5046489;28;20439;-54
2023/11/22 11:06:33;;;;;;;11.15;5.57;;;2.70;99.90;;;;;;5047990;28;20094;-53
2023/11/22 11:09:01;;;;;;;7.75;5.18;;;2.70;99.90;;;;;;5047890;28;20563;-55
2023/11/22 11:11:29;;;;;;;7.93;4.82;;;2.70;99.90;;;;;;5049055;28;20024;-55
2023/11/22 11:13:55;;;;;;;8.15;5.32;;;2.70;99.90;;;;;;5049101;28;20095;-55
2023/11/22 11:16:21;;;;;;;7.80;5.03;;;2.80;99.90;;;;;;5047284;28;20020;-52
2023/11/22 11:18:48;;;;;;;5.75;4.13;;;2.80;99.90;;;;;;5050197;28;20020;-53
2023/11/22 11:21:15;;;;;;;8.90;4.95;;;2.80;99.90;;;;;;5041690;28;20370;-55
2023/11/22 11:23:44;;;;;;;7.63;4.75;;;2.90;99.90;;;;;;5049175;28;20018;-57
2023/11/22 11:26:17;;;;;;;8.48;5.70;;;2.90;99.90;;;;;;5049018;28;20029;-57
2023/11/22 11:28:45;;;;;;;8.15;5.05;;;3.00;99.90;;;;;;5052071;28;20063;-55
2023/11/22 11:31:11;;;;;;;6.63;5.25;;;3.00;99.90;;;;;;5030476;28;20029;-57
2023/11/22 11:33:51;;;;;;;8.30;4.85;;;3.00;99.90;;;;;;5049160;28;20061;-57
2023/11/22 11:36:24;;;;;;;9.63;5.32;;;3.00;99.90;;;;;;5051571;28;20027;-55
2023/11/22 11:38:55;;;;;;;5.32;4.20;;;3.10;99.90;;;;;;5037342;28;20090;-54
2023/11/22 11:41:26;;;;;;;6.15;3.83;;;3.00;99.90;;;;;;5050993;28;20063;-54
2023/11/22 11:43:52;;;;;;;5.88;4.18;;;3.10;99.90;;;;;;5048109;28;20032;-57
2023/11/22 11:46:18;;;;;;;5.95;3.60;;;3.10;99.90;;;;;;5048956;28;20020;-52
2023/11/22 11:48:44;;;;;;;4.75;3.83;;;3.10;99.90;;;;;;5047544;28;20353;-57
2023/11/22 11:51:13;;;;;;;5.43;3.28;;;3.10;99.90;;;;;;5046410;28;20182;-54
2023/11/22 11:53:39;;;;;;;3.58;2.72;;;3.10;99.90;;;;;;5044218;28;20091;-54
2023/11/22 11:56:05;;;;;;;3.63;2.67;;;3.10;99.90;;;;;;5036225;28;20528;-54
2023/11/22 11:58:31;;;;;;;5.22;2.75;;;3.10;99.90;;;;;;5042676;28;20040;-53
2023/11/22 12:00:57;;;;;;;3.03;2.03;;;3.20;99.90;;;;;;5045624;28;20155;-55
2023/11/22 12:03:23;;;;;;;3.58;2.42;;;3.20;99.90;;;;;;5042089;28;20120;-54
2023/11/22 12:05:49;;;;;;;3.05;2.17;;;3.20;99.90;;;;;;5030943;28;20021;-54
2023/11/22 12:08:15;;;;;;;3.20;1.95;;;3.20;99.90;;;;;;5042060;28;20025;-53
2023/11/22 12:10:41;;;;;;;2.70;2.00;;;3.20;99.90;;;;;;5048652;28;20035;-55
2023/11/22 12:13:08;;;;;;;2.22;1.85;;;3.20;99.90;;;;;;5046648;28;20033;-55
2023/11/22 12:15:34;;;;;;;2.88;1.48;;;3.20;99.90;;;;;;5044235;28;20044;-54
2023/11/22 12:18:00;;;;;;;2.63;1.40;;;3.20;99.90;;;;;;5041667;28;20025;-52
2023/11/22 12:20:31;;;;;;;1.83;1.58;;;3.20;99.90;;;;;;5048921;28;20117;-56
2023/11/22 12:22:57;;;;;;;1.65;1.23;;;3.20;99.90;;;;;;5042416;28;20025;-55
2023/11/22 12:25:26;;;;;;;6.05;1.90;;;3.30;99.90;;;;;;5043985;28;20060;-57
2023/11/22 12:27:54;;;;;;;1.48;1.00;;;3.20;99.90;;;;;;5048814;28;20028;-56
2023/11/22 12:30:34;;;;;;;1.25;1.17;;;3.20;99.90;;;;;;5043737;28;20029;-56
2023/11/22 12:33:04;;;;;;;3.05;1.40;;;3.30;99.90;;;;;;5046130;28;20104;-54
2023/11/22 12:35:32;;;;;;;2.53;1.05;;;3.20;99.90;;;;;;5050509;28;20035;-55
2023/11/22 12:37:59;;;;;;;1.35;0.77;;;3.20;99.90;;;;;;5050153;28;20024;-57
2023/11/22 12:40:33;;;;;;;1.25;0.95;;;3.20;99.90;;;;;;5042435;28;20028;-56
2023/11/22 12:43:00;;;;;;;0.80;0.80;;;3.20;99.90;;;;;;5041447;28;20074;-56
2023/11/22 12:45:28;;;;;;;1.17;0.70;;;3.10;99.90;;;;;;5047231;28;20026;-56
2023/11/22 12:47:54;;;;;;;2.72;1.00;;;3.10;99.90;;;;;;5044969;28;20574;-57
2023/11/22 12:50:32;;;;;;;1.40;0.98;;;3.10;99.90;;;;;;5031864;28;20057;-57